sensor_id;sensor_type;location;lat;lon;timestamp;P1;durP1;ratioP1;P2;durP2;ratioP2
61389;SDS011;47260;48.274;19.814;2022-12-10T11:03:32;16.08;;;8.90;;
61389;SDS011;47260;48.274;19.814;2022-12-10T11:06:00;14.27;;;8.80;;
61389;SDS011;47260;48.274;19.814;2022-12-10T11:08:31;16.75;;;9.43;;
61389;SDS011;47260;48.274;19.814;2022-12-10T11:10:59;18.40;;;9.73;;
61389;SDS011;47260;48.274;19.814;2022-12-10T11:13:29;13.82;;;7.95;;
61389;SDS011;47260;48.274;19.814;2022-12-10T11:15:58;15.52;;;9.10;;
61389;SDS011;47260;48.274;19.814;2022-12-10T11:18:30;16.15;;;9.70;;
61389;SDS011;47260;48.274;19.814;2022-12-10T11:21:02;15.45;;;8.85;;
61389;SDS011;47260;48.274;19.814;2022-12-10T11:23:36;16.33;;;9.02;;
61389;SDS011;47260;48.274;19.814;2022-12-10T11:26:15;19.40;;;9.30;;
61389;SDS011;47260;48.274;19.814;2022-12-10T11:29:02;16.40;;;9.30;;
61389;SDS011;47260;48.274;19.814;2022-12-10T11:31:44;18.65;;;9.27;;
61389;SDS011;47260;48.274;19.814;2022-12-10T11:34:20;20.20;;;10.43;;
61389;SDS011;47260;48.274;19.814;2022-12-10T11:36:58;14.38;;;7.95;;
61389;SDS011;47260;48.274;19.814;2022-12-10T11:39:42;14.30;;;8.40;;
61389;SDS011;47260;48.274;19.814;2022-12-10T11:42:25;15.18;;;8.45;;
61389;SDS011;47260;48.274;19.814;2022-12-10T11:44:58;14.52;;;9.00;;
61389;SDS011;47260;48.274;19.814;2022-12-10T11:47:35;14.98;;;9.25;;
61389;SDS011;47260;48.274;19.814;2022-12-10T11:50:14;14.13;;;8.93;;
61389;SDS011;47260;48.274;19.814;2022-12-10T11:52:51;15.85;;;9.10;;
61389;SDS011;47260;48.274;19.814;2022-12-10T11:55:27;13.73;;;9.07;;
61389;SDS011;47260;48.274;19.814;2022-12-10T11:58:06;13.65;;;8.05;;
61389;SDS011;47260;48.274;19.814;2022-12-10T12:00:46;16.27;;;9.40;;
61389;SDS011;47260;48.274;19.814;2022-12-10T12:03:33;17.80;;;9.40;;
61389;SDS011;47260;48.274;19.814;2022-12-10T12:06:20;16.92;;;9.50;;
61389;SDS011;47260;48.274;19.814;2022-12-10T12:09:02;16.15;;;9.38;;
61389;SDS011;47260;48.274;19.814;2022-12-10T12:11:42;16.38;;;10.05;;
61389;SDS011;47260;48.274;19.814;2022-12-10T12:14:19;16.58;;;10.05;;
61389;SDS011;47260;48.274;19.814;2022-12-10T12:16:53;18.27;;;10.75;;
61389;SDS011;47260;48.274;19.814;2022-12-10T12:19:28;20.20;;;11.48;;
61389;SDS011;47260;48.274;19.814;2022-12-10T12:22:02;23.00;;;12.60;;
61389;SDS011;47260;48.274;19.814;2022-12-10T12:24:34;22.15;;;12.55;;
61389;SDS011;47260;48.274;19.814;2022-12-10T12:27:02;22.55;;;12.65;;
61389;SDS011;47260;48.274;19.814;2022-12-10T12:29:37;19.95;;;13.05;;
61389;SDS011;47260;48.274;19.814;2022-12-10T12:32:10;24.10;;;13.52;;
61389;SDS011;47260;48.274;19.814;2022-12-10T12:34:44;25.63;;;14.57;;
61389;SDS011;47260;48.274;19.814;2022-12-10T12:37:19;27.48;;;14.75;;
61389;SDS011;47260;48.274;19.814;2022-12-10T12:39:48;24.83;;;13.57;;
61389;SDS011;47260;48.274;19.814;2022-12-10T12:42:20;23.15;;;13.30;;
61389;SDS011;47260;48.274;19.814;2022-12-10T12:44:56;24.00;;;13.88;;
61389;SDS011;47260;48.274;19.814;2022-12-10T12:47:30;25.85;;;14.70;;
61389;SDS011;47260;48.274;19.814;2022-12-10T12:50:10;27.60;;;15.02;;
61389;SDS011;47260;48.274;19.814;2022-12-10T12:52:48;28.10;;;15.60;;
61389;SDS011;47260;48.274;19.814;2022-12-10T12:55:19;28.90;;;14.88;;
61389;SDS011;47260;48.274;19.814;2022-12-10T12:57:53;32.53;;;15.85;;
61389;SDS011;47260;48.274;19.814;2022-12-10T13:00:24;24.73;;;15.05;;
61389;SDS011;47260;48.274;19.814;2022-12-10T13:03:05;28.80;;;16.80;;
61389;SDS011;47260;48.274;19.814;2022-12-10T13:05:43;29.00;;;15.20;;
61389;SDS011;47260;48.274;19.814;2022-12-10T13:19:52;28.02;;;15.55;;
61389;SDS011;47260;48.274;19.814;2022-12-10T13:25:12;28.92;;;15.13;;
61389;SDS011;47260;48.274;19.814;2022-12-10T13:27:40;26.80;;;14.68;;
61389;SDS011;47260;48.274;19.814;2022-12-10T13:33:03;26.98;;;15.30;;
61389;SDS011;47260;48.274;19.814;2022-12-10T13:35:41;29.30;;;15.33;;
61389;SDS011;47260;48.274;19.814;2022-12-10T13:38:18;23.23;;;13.93;;
61389;SDS011;47260;48.274;19.814;2022-12-10T13:40:57;28.17;;;15.45;;
61389;SDS011;47260;48.274;19.814;2022-12-10T13:43:51;22.48;;;13.23;;
61389;SDS011;47260;48.274;19.814;2022-12-10T13:46:50;29.77;;;13.93;;
61389;SDS011;47260;48.274;19.814;2022-12-10T13:49:19;24.17;;;13.95;;
61389;SDS011;47260;48.274;19.814;2022-12-10T13:51:58;27.90;;;15.60;;
61389;SDS011;47260;48.274;19.814;2022-12-10T13:54:34;32.08;;;15.60;;
61389;SDS011;47260;48.274;19.814;2022-12-10T13:57:15;31.42;;;16.92;;
61389;SDS011;47260;48.274;19.814;2022-12-10T13:59:57;41.10;;;22.70;;
61389;SDS011;47260;48.274;19.814;2022-12-10T14:02:43;42.70;;;24.45;;
61389;SDS011;47260;48.274;19.814;2022-12-10T14:05:23;65.80;;;35.00;;
61389;SDS011;47260;48.274;19.814;2022-12-10T14:08:04;50.85;;;28.45;;
61389;SDS011;47260;48.274;19.814;2022-12-10T14:10:32;59.85;;;33.33;;
61389;SDS011;47260;48.274;19.814;2022-12-10T14:13:03;61.40;;;35.88;;
61389;SDS011;47260;48.274;19.814;2022-12-10T14:15:31;74.93;;;38.28;;
61389;SDS011;47260;48.274;19.814;2022-12-10T14:18:03;44.15;;;22.98;;
61389;SDS011;47260;48.274;19.814;2022-12-10T14:20:39;46.72;;;23.42;;
61389;SDS011;47260;48.274;19.814;2022-12-10T14:23:19;43.85;;;22.85;;
61389;SDS011;47260;48.274;19.814;2022-12-10T14:26:08;58.35;;;27.15;;
61389;SDS011;47260;48.274;19.814;2022-12-10T14:28:42;46.42;;;22.92;;
61389;SDS011;47260;48.274;19.814;2022-12-10T14:31:12;63.92;;;28.52;;
61389;SDS011;47260;48.274;19.814;2022-12-10T14:33:43;62.60;;;28.77;;
61389;SDS011;47260;48.274;19.814;2022-12-10T14:36:14;65.55;;;33.38;;
61389;SDS011;47260;48.274;19.814;2022-12-10T14:38:45;98.65;;;41.00;;
61389;SDS011;47260;48.274;19.814;2022-12-10T14:41:14;63.72;;;27.40;;
61389;SDS011;47260;48.274;19.814;2022-12-10T14:43:46;32.92;;;15.13;;
61389;SDS011;47260;48.274;19.814;2022-12-10T14:46:14;35.45;;;17.00;;
61389;SDS011;47260;48.274;19.814;2022-12-10T14:48:43;51.90;;;24.83;;
61389;SDS011;47260;48.274;19.814;2022-12-10T14:51:12;82.35;;;45.47;;
61389;SDS011;47260;48.274;19.814;2022-12-10T14:53:41;62.53;;;33.38;;
61389;SDS011;47260;48.274;19.814;2022-12-10T14:56:08;49.30;;;23.98;;
61389;SDS011;47260;48.274;19.814;2022-12-10T14:58:41;52.22;;;25.52;;
61389;SDS011;47260;48.274;19.814;2022-12-10T15:01:15;49.05;;;25.05;;
61389;SDS011;47260;48.274;19.814;2022-12-10T15:03:46;44.40;;;22.42;;
61389;SDS011;47260;48.274;19.814;2022-12-10T15:06:15;36.28;;;18.42;;
61389;SDS011;47260;48.274;19.814;2022-12-10T15:08:45;31.70;;;14.52;;
61389;SDS011;47260;48.274;19.814;2022-12-10T15:11:14;67.15;;;34.85;;
61389;SDS011;47260;48.274;19.814;2022-12-10T15:13:43;77.90;;;41.28;;
61389;SDS011;47260;48.274;19.814;2022-12-10T15:16:16;53.40;;;26.97;;
61389;SDS011;47260;48.274;19.814;2022-12-10T15:18:44;78.75;;;39.42;;
61389;SDS011;47260;48.274;19.814;2022-12-10T15:21:13;108.53;;;53.13;;
61389;SDS011;47260;48.274;19.814;2022-12-10T15:23:42;109.85;;;51.85;;
61389;SDS011;47260;48.274;19.814;2022-12-10T15:26:14;85.50;;;38.65;;
61389;SDS011;47260;48.274;19.814;2022-12-10T15:28:44;78.53;;;38.97;;
61389;SDS011;47260;48.274;19.814;2022-12-10T15:31:12;66.68;;;31.88;;
61389;SDS011;47260;48.274;19.814;2022-12-10T15:33:46;38.92;;;17.80;;
61389;SDS011;47260;48.274;19.814;2022-12-10T15:36:16;28.27;;;13.48;;
61389;SDS011;47260;48.274;19.814;2022-12-10T15:38:46;28.13;;;12.75;;
61389;SDS011;47260;48.274;19.814;2022-12-10T15:41:24;48.95;;;26.42;;
61389;SDS011;47260;48.274;19.814;2022-12-10T15:44:03;61.65;;;34.55;;
61389;SDS011;47260;48.274;19.814;2022-12-10T15:46:31;58.90;;;30.73;;
61389;SDS011;47260;48.274;19.814;2022-12-10T15:48:59;77.05;;;39.13;;
61389;SDS011;47260;48.274;19.814;2022-12-10T15:51:26;110.38;;;55.10;;
61389;SDS011;47260;48.274;19.814;2022-12-10T15:53:53;70.10;;;38.72;;
61389;SDS011;47260;48.274;19.814;2022-12-10T15:56:19;53.20;;;30.10;;
61389;SDS011;47260;48.274;19.814;2022-12-10T15:58:46;57.55;;;31.65;;
61389;SDS011;47260;48.274;19.814;2022-12-10T16:01:13;56.95;;;31.17;;
61389;SDS011;47260;48.274;19.814;2022-12-10T16:03:40;67.47;;;38.85;;
61389;SDS011;47260;48.274;19.814;2022-12-10T16:06:09;80.93;;;47.08;;
61389;SDS011;47260;48.274;19.814;2022-12-10T16:08:35;57.88;;;32.60;;
61389;SDS011;47260;48.274;19.814;2022-12-10T16:11:03;62.10;;;34.75;;
61389;SDS011;47260;48.274;19.814;2022-12-10T16:13:45;74.75;;;41.47;;
61389;SDS011;47260;48.274;19.814;2022-12-10T16:16:15;62.80;;;36.60;;
61389;SDS011;47260;48.274;19.814;2022-12-10T16:18:42;55.85;;;29.65;;
61389;SDS011;47260;48.274;19.814;2022-12-10T16:21:11;63.70;;;34.28;;
61389;SDS011;47260;48.274;19.814;2022-12-10T16:23:38;56.33;;;31.10;;
61389;SDS011;47260;48.274;19.814;2022-12-10T16:26:08;53.28;;;30.90;;
61389;SDS011;47260;48.274;19.814;2022-12-10T16:28:39;66.10;;;37.28;;
61389;SDS011;47260;48.274;19.814;2022-12-10T16:31:07;73.45;;;38.95;;
61389;SDS011;47260;48.274;19.814;2022-12-10T16:33:37;74.82;;;41.33;;
61389;SDS011;47260;48.274;19.814;2022-12-10T16:36:04;67.30;;;34.90;;
61389;SDS011;47260;48.274;19.814;2022-12-10T16:38:32;67.28;;;37.58;;
61389;SDS011;47260;48.274;19.814;2022-12-10T16:40:59;81.10;;;46.50;;
61389;SDS011;47260;48.274;19.814;2022-12-10T16:43:28;81.53;;;46.35;;
61389;SDS011;47260;48.274;19.814;2022-12-10T16:45:55;63.03;;;36.75;;
61389;SDS011;47260;48.274;19.814;2022-12-10T16:48:22;55.33;;;32.17;;
61389;SDS011;47260;48.274;19.814;2022-12-10T16:50:49;56.35;;;32.85;;
61389;SDS011;47260;48.274;19.814;2022-12-10T16:53:18;50.17;;;28.60;;
61389;SDS011;47260;48.274;19.814;2022-12-10T16:55:49;46.53;;;26.27;;
61389;SDS011;47260;48.274;19.814;2022-12-10T16:58:16;44.13;;;27.45;;
61389;SDS011;47260;48.274;19.814;2022-12-10T17:00:44;41.33;;;21.60;;
61389;SDS011;47260;48.274;19.814;2022-12-10T17:03:12;35.20;;;20.20;;
61389;SDS011;47260;48.274;19.814;2022-12-10T17:05:47;33.45;;;21.58;;
61389;SDS011;47260;48.274;19.814;2022-12-10T17:08:15;46.30;;;28.48;;
61389;SDS011;47260;48.274;19.814;2022-12-10T17:10:42;33.20;;;20.35;;
61389;SDS011;47260;48.274;19.814;2022-12-10T17:13:27;36.67;;;20.48;;
61389;SDS011;47260;48.274;19.814;2022-12-10T17:15:55;30.90;;;18.98;;
61389;SDS011;47260;48.274;19.814;2022-12-10T17:18:23;29.00;;;17.58;;
61389;SDS011;47260;48.274;19.814;2022-12-10T17:20:49;61.60;;;29.70;;
61389;SDS011;47260;48.274;19.814;2022-12-10T17:23:16;114.20;;;44.00;;
61389;SDS011;47260;48.274;19.814;2022-12-10T17:25:43;39.95;;;23.20;;
61389;SDS011;47260;48.274;19.814;2022-12-10T17:28:11;35.33;;;22.27;;
61389;SDS011;47260;48.274;19.814;2022-12-10T17:30:40;38.03;;;23.48;;
61389;SDS011;47260;48.274;19.814;2022-12-10T17:33:09;41.72;;;24.52;;
61389;SDS011;47260;48.274;19.814;2022-12-10T17:35:38;55.03;;;36.00;;
61389;SDS011;47260;48.274;19.814;2022-12-10T17:38:09;37.30;;;25.52;;
61389;SDS011;47260;48.274;19.814;2022-12-10T17:40:40;36.65;;;25.90;;
61389;SDS011;47260;48.274;19.814;2022-12-10T17:43:07;41.05;;;24.00;;
61389;SDS011;47260;48.274;19.814;2022-12-10T17:45:33;36.05;;;22.15;;
61389;SDS011;47260;48.274;19.814;2022-12-10T17:48:02;47.25;;;26.40;;
61389;SDS011;47260;48.274;19.814;2022-12-10T17:50:30;42.95;;;24.42;;
61389;SDS011;47260;48.274;19.814;2022-12-10T17:52:59;41.67;;;23.92;;
61389;SDS011;47260;48.274;19.814;2022-12-10T17:55:26;37.38;;;22.98;;
61389;SDS011;47260;48.274;19.814;2022-12-10T17:57:53;44.00;;;24.73;;
61389;SDS011;47260;48.274;19.814;2022-12-10T18:00:22;49.90;;;27.73;;
61389;SDS011;47260;48.274;19.814;2022-12-10T18:02:49;40.08;;;22.67;;
61389;SDS011;47260;48.274;19.814;2022-12-10T18:05:17;36.10;;;21.85;;
61389;SDS011;47260;48.274;19.814;2022-12-10T18:07:44;33.53;;;21.05;;
61389;SDS011;47260;48.274;19.814;2022-12-10T18:10:13;51.35;;;27.23;;
61389;SDS011;47260;48.274;19.814;2022-12-10T18:12:42;42.13;;;24.57;;
61389;SDS011;47260;48.274;19.814;2022-12-10T18:15:09;35.70;;;22.60;;
61389;SDS011;47260;48.274;19.814;2022-12-10T18:17:37;32.05;;;18.85;;
61389;SDS011;47260;48.274;19.814;2022-12-10T18:20:03;35.85;;;20.80;;
61389;SDS011;47260;48.274;19.814;2022-12-10T18:22:34;43.10;;;24.27;;
61389;SDS011;47260;48.274;19.814;2022-12-10T18:25:01;54.58;;;27.77;;
61389;SDS011;47260;48.274;19.814;2022-12-10T18:27:28;33.75;;;21.15;;
61389;SDS011;47260;48.274;19.814;2022-12-10T18:29:55;34.25;;;19.05;;
61389;SDS011;47260;48.274;19.814;2022-12-10T18:32:22;27.35;;;17.38;;
61389;SDS011;47260;48.274;19.814;2022-12-10T18:34:48;29.20;;;19.60;;
61389;SDS011;47260;48.274;19.814;2022-12-10T18:37:16;32.88;;;21.10;;
61389;SDS011;47260;48.274;19.814;2022-12-10T18:39:44;36.60;;;22.77;;
61389;SDS011;47260;48.274;19.814;2022-12-10T18:42:11;33.28;;;21.13;;
61389;SDS011;47260;48.274;19.814;2022-12-10T18:44:37;38.90;;;23.10;;
61389;SDS011;47260;48.274;19.814;2022-12-10T18:47:08;34.40;;;20.25;;
61389;SDS011;47260;48.274;19.814;2022-12-10T18:49:37;60.17;;;32.97;;
61389;SDS011;47260;48.274;19.814;2022-12-10T18:52:04;64.32;;;31.92;;
61389;SDS011;47260;48.274;19.814;2022-12-10T18:54:31;55.33;;;29.67;;
61389;SDS011;47260;48.274;19.814;2022-12-10T18:56:59;40.63;;;22.33;;
61389;SDS011;47260;48.274;19.814;2022-12-10T18:59:26;44.28;;;26.23;;
61389;SDS011;47260;48.274;19.814;2022-12-10T19:01:52;40.78;;;26.13;;
61389;SDS011;47260;48.274;19.814;2022-12-10T19:04:21;38.22;;;23.92;;
61389;SDS011;47260;48.274;19.814;2022-12-10T19:06:51;36.42;;;20.80;;
61389;SDS011;47260;48.274;19.814;2022-12-10T19:09:17;39.70;;;23.40;;
61389;SDS011;47260;48.274;19.814;2022-12-10T19:11:44;50.92;;;29.65;;
61389;SDS011;47260;48.274;19.814;2022-12-10T19:14:15;27.42;;;17.75;;
61389;SDS011;47260;48.274;19.814;2022-12-10T19:16:41;31.13;;;20.05;;
61389;SDS011;47260;48.274;19.814;2022-12-10T19:19:08;19.98;;;12.73;;
61389;SDS011;47260;48.274;19.814;2022-12-10T19:21:36;34.38;;;21.40;;
61389;SDS011;47260;48.274;19.814;2022-12-10T19:24:03;25.70;;;17.58;;
61389;SDS011;47260;48.274;19.814;2022-12-10T19:26:31;27.40;;;18.20;;
61389;SDS011;47260;48.274;19.814;2022-12-10T19:28:59;28.73;;;18.38;;
61389;SDS011;47260;48.274;19.814;2022-12-10T19:31:28;30.33;;;19.30;;
61389;SDS011;47260;48.274;19.814;2022-12-10T19:33:55;28.20;;;17.55;;
61389;SDS011;47260;48.274;19.814;2022-12-10T19:36:22;28.98;;;18.20;;
61389;SDS011;47260;48.274;19.814;2022-12-10T19:38:50;42.42;;;20.20;;
61389;SDS011;47260;48.274;19.814;2022-12-10T19:41:17;21.05;;;13.35;;
61389;SDS011;47260;48.274;19.814;2022-12-10T19:43:45;21.55;;;14.38;;
61389;SDS011;47260;48.274;19.814;2022-12-10T19:46:12;27.10;;;16.33;;
61389;SDS011;47260;48.274;19.814;2022-12-10T19:48:42;34.92;;;16.77;;
61389;SDS011;47260;48.274;19.814;2022-12-10T19:51:10;19.08;;;11.32;;
61389;SDS011;47260;48.274;19.814;2022-12-10T19:53:37;18.13;;;11.60;;
61389;SDS011;47260;48.274;19.814;2022-12-10T19:56:08;22.42;;;13.57;;
61389;SDS011;47260;48.274;19.814;2022-12-10T19:58:44;21.38;;;12.77;;
61389;SDS011;47260;48.274;19.814;2022-12-10T20:01:10;14.10;;;10.02;;
61389;SDS011;47260;48.274;19.814;2022-12-10T20:03:37;17.85;;;11.25;;
61389;SDS011;47260;48.274;19.814;2022-12-10T20:06:08;23.20;;;13.70;;
61389;SDS011;47260;48.274;19.814;2022-12-10T20:08:38;18.20;;;11.70;;
61389;SDS011;47260;48.274;19.814;2022-12-10T20:11:04;25.48;;;14.65;;
61389;SDS011;47260;48.274;19.814;2022-12-10T20:13:31;22.63;;;14.55;;
61389;SDS011;47260;48.274;19.814;2022-12-10T20:15:58;14.68;;;10.00;;
61389;SDS011;47260;48.274;19.814;2022-12-10T20:18:24;20.73;;;11.57;;
61389;SDS011;47260;48.274;19.814;2022-12-10T20:20:51;22.92;;;12.20;;
61389;SDS011;47260;48.274;19.814;2022-12-10T20:23:19;15.43;;;10.10;;
61389;SDS011;47260;48.274;19.814;2022-12-10T20:25:46;13.05;;;8.20;;
61389;SDS011;47260;48.274;19.814;2022-12-10T20:28:15;24.33;;;13.30;;
61389;SDS011;47260;48.274;19.814;2022-12-10T20:30:42;13.07;;;8.05;;
61389;SDS011;47260;48.274;19.814;2022-12-10T20:33:08;17.00;;;10.43;;
61389;SDS011;47260;48.274;19.814;2022-12-10T20:35:35;13.10;;;9.48;;
61389;SDS011;47260;48.274;19.814;2022-12-10T20:38:02;12.15;;;8.52;;
61389;SDS011;47260;48.274;19.814;2022-12-10T20:40:30;17.40;;;11.05;;
61389;SDS011;47260;48.274;19.814;2022-12-10T20:42:57;10.18;;;7.40;;
61389;SDS011;47260;48.274;19.814;2022-12-10T20:45:23;15.77;;;10.10;;
61389;SDS011;47260;48.274;19.814;2022-12-10T20:47:50;14.48;;;8.40;;
61389;SDS011;47260;48.274;19.814;2022-12-10T20:50:17;13.95;;;10.02;;
61389;SDS011;47260;48.274;19.814;2022-12-10T20:52:44;23.98;;;13.88;;
61389;SDS011;47260;48.274;19.814;2022-12-10T20:55:11;17.70;;;10.90;;
61389;SDS011;47260;48.274;19.814;2022-12-10T20:57:39;12.25;;;8.13;;
61389;SDS011;47260;48.274;19.814;2022-12-10T21:00:07;15.02;;;8.82;;
61389;SDS011;47260;48.274;19.814;2022-12-10T21:02:37;21.80;;;12.40;;
61389;SDS011;47260;48.274;19.814;2022-12-10T21:05:04;34.85;;;15.98;;
61389;SDS011;47260;48.274;19.814;2022-12-10T21:07:31;29.67;;;13.63;;
61389;SDS011;47260;48.274;19.814;2022-12-10T21:09:58;21.48;;;11.57;;
61389;SDS011;47260;48.274;19.814;2022-12-10T21:12:25;26.95;;;15.43;;
61389;SDS011;47260;48.274;19.814;2022-12-10T21:14:53;17.08;;;8.95;;
61389;SDS011;47260;48.274;19.814;2022-12-10T21:17:19;37.10;;;16.17;;
61389;SDS011;47260;48.274;19.814;2022-12-10T21:19:46;38.75;;;18.58;;
61389;SDS011;47260;48.274;19.814;2022-12-10T21:22:13;22.33;;;12.77;;
61389;SDS011;47260;48.274;19.814;2022-12-10T21:24:43;30.05;;;14.98;;
61389;SDS011;47260;48.274;19.814;2022-12-10T21:27:09;44.15;;;23.35;;
61389;SDS011;47260;48.274;19.814;2022-12-10T21:29:37;48.08;;;25.30;;
61389;SDS011;47260;48.274;19.814;2022-12-10T21:32:05;28.00;;;14.60;;
61389;SDS011;47260;48.274;19.814;2022-12-10T21:34:32;34.35;;;16.02;;
61389;SDS011;47260;48.274;19.814;2022-12-10T21:36:58;30.65;;;16.20;;
61389;SDS011;47260;48.274;19.814;2022-12-10T21:39:25;26.70;;;14.10;;
61389;SDS011;47260;48.274;19.814;2022-12-10T21:41:51;25.95;;;14.45;;
61389;SDS011;47260;48.274;19.814;2022-12-10T21:44:36;45.47;;;20.38;;
61389;SDS011;47260;48.274;19.814;2022-12-10T21:47:03;38.47;;;16.83;;
61389;SDS011;47260;48.274;19.814;2022-12-10T21:49:31;47.63;;;21.25;;
61389;SDS011;47260;48.274;19.814;2022-12-10T21:51:57;24.98;;;13.00;;
61389;SDS011;47260;48.274;19.814;2022-12-10T21:54:24;9.73;;;5.32;;
61389;SDS011;47260;48.274;19.814;2022-12-10T21:56:51;20.10;;;11.57;;
61389;SDS011;47260;48.274;19.814;2022-12-10T21:59:17;12.27;;;7.97;;
61389;SDS011;47260;48.274;19.814;2022-12-10T22:01:44;7.00;;;3.55;;
61389;SDS011;47260;48.274;19.814;2022-12-10T22:04:12;20.25;;;9.95;;
61389;SDS011;47260;48.274;19.814;2022-12-10T22:06:39;12.05;;;5.63;;
61389;SDS011;47260;48.274;19.814;2022-12-10T22:09:05;10.27;;;6.05;;
61389;SDS011;47260;48.274;19.814;2022-12-10T22:11:32;11.10;;;5.68;;
61389;SDS011;47260;48.274;19.814;2022-12-10T22:13:59;23.35;;;13.13;;
61389;SDS011;47260;48.274;19.814;2022-12-10T22:16:25;30.13;;;15.13;;
61389;SDS011;47260;48.274;19.814;2022-12-10T22:18:52;29.55;;;13.68;;
61389;SDS011;47260;48.274;19.814;2022-12-10T22:21:20;16.80;;;8.13;;
61389;SDS011;47260;48.274;19.814;2022-12-10T22:23:48;16.08;;;8.25;;
61389;SDS011;47260;48.274;19.814;2022-12-10T22:26:15;22.27;;;12.35;;
61389;SDS011;47260;48.274;19.814;2022-12-10T22:28:42;30.30;;;18.10;;
61389;SDS011;47260;48.274;19.814;2022-12-10T22:31:09;46.13;;;24.60;;
61389;SDS011;47260;48.274;19.814;2022-12-10T22:33:36;36.10;;;20.33;;
61389;SDS011;47260;48.274;19.814;2022-12-10T22:36:03;38.15;;;18.83;;
61389;SDS011;47260;48.274;19.814;2022-12-10T22:38:32;31.65;;;17.40;;
61389;SDS011;47260;48.274;19.814;2022-12-10T22:40:59;26.23;;;15.15;;
61389;SDS011;47260;48.274;19.814;2022-12-10T22:43:25;25.20;;;14.93;;
61389;SDS011;47260;48.274;19.814;2022-12-10T22:45:52;26.90;;;14.90;;
61389;SDS011;47260;48.274;19.814;2022-12-10T22:48:20;22.10;;;13.60;;
61389;SDS011;47260;48.274;19.814;2022-12-10T22:50:47;20.33;;;12.10;;
61389;SDS011;47260;48.274;19.814;2022-12-10T22:53:14;21.20;;;12.27;;
61389;SDS011;47260;48.274;19.814;2022-12-10T22:55:42;16.52;;;9.55;;
61389;SDS011;47260;48.274;19.814;2022-12-10T22:58:09;15.23;;;9.35;;
61389;SDS011;47260;48.274;19.814;2022-12-10T23:00:36;12.95;;;9.43;;
61389;SDS011;47260;48.274;19.814;2022-12-10T23:03:02;13.75;;;8.55;;
61389;SDS011;47260;48.274;19.814;2022-12-10T23:05:29;12.02;;;9.15;;
61389;SDS011;47260;48.274;19.814;2022-12-10T23:08:00;13.25;;;8.57;;
61389;SDS011;47260;48.274;19.814;2022-12-10T23:10:31;13.75;;;8.63;;
61389;SDS011;47260;48.274;19.814;2022-12-10T23:12:59;12.88;;;8.13;;
61389;SDS011;47260;48.274;19.814;2022-12-10T23:15:32;13.60;;;8.48;;
61389;SDS011;47260;48.274;19.814;2022-12-10T23:17:58;13.82;;;8.57;;
61389;SDS011;47260;48.274;19.814;2022-12-10T23:20:25;14.75;;;8.27;;
61389;SDS011;47260;48.274;19.814;2022-12-10T23:22:52;17.00;;;9.48;;
61389;SDS011;47260;48.274;19.814;2022-12-10T23:25:18;16.00;;;9.95;;
61389;SDS011;47260;48.274;19.814;2022-12-10T23:27:45;13.48;;;9.20;;
61389;SDS011;47260;48.274;19.814;2022-12-10T23:30:13;17.00;;;9.63;;
61389;SDS011;47260;48.274;19.814;2022-12-10T23:32:40;14.25;;;9.18;;
61389;SDS011;47260;48.274;19.814;2022-12-10T23:35:07;15.23;;;9.80;;
61389;SDS011;47260;48.274;19.814;2022-12-10T23:37:34;17.85;;;10.73;;
61389;SDS011;47260;48.274;19.814;2022-12-10T23:40:01;16.85;;;9.63;;
61389;SDS011;47260;48.274;19.814;2022-12-10T23:42:29;16.05;;;10.82;;
61389;SDS011;47260;48.274;19.814;2022-12-10T23:44:56;15.88;;;9.90;;
61389;SDS011;47260;48.274;19.814;2022-12-10T23:47:24;16.30;;;10.98;;
61389;SDS011;47260;48.274;19.814;2022-12-10T23:49:52;44.50;;;21.60;;
61389;SDS011;47260;48.274;19.814;2022-12-10T23:52:19;44.22;;;20.38;;
61389;SDS011;47260;48.274;19.814;2022-12-10T23:54:47;41.55;;;20.85;;
61389;SDS011;47260;48.274;19.814;2022-12-10T23:57:13;39.13;;;17.15;;
61389;SDS011;47260;48.274;19.814;2022-12-10T23:59:40;12.07;;;8.10;;
